This is the latest recevied weather packets stored in our database for station/object WA1OUI. If no packets are shown the sender has not sent any weather packets the latest 1 day(s).
| Time | Temp. | Humidity | Pressure | Rain* | Wind** | Luminosity | Snow |
|---|---|---|---|---|---|---|---|
| 1778077550 | 18.89° C | 71% | 1007.5 hPa | 0 mm | - | 178 W/m² | - |
| 1778077248 | 18.89° C | 72% | 1007.5 hPa | 0 mm | - | 126 W/m² | - |
| 1778076341 | 18.33° C | 75% | 1007.3 hPa | 0 mm | - | 241 W/m² | - |
| 1778074521 | 17.22° C | 80% | 1007.3 hPa | 0 mm | - | 121 W/m² | - |
| 1778073612 | 16.67° C | 81% | 1007.4 hPa | 0 mm | - | 148 W/m² | - |
| 1778073309 | 16.67° C | 81% | 1007.5 hPa | 0 mm | - | 160 W/m² | - |
| 1778072098 | 16.11° C | 83% | 1007.7 hPa | 0 mm | - | 120 W/m² | - |
| 1778071795 | 15.56° C | 83% | 1007.8 hPa | 0 mm | - | 114 W/m² | - |
| 1778071493 | 15.56° C | 84% | 1007.8 hPa | 0 mm | - | 73 W/m² | - |
| 1778071191 | 15.56° C | 84% | 1008 hPa | 0 mm | - | 62 W/m² | - |
| 1778070889 | 15.56° C | 84% | 1008.2 hPa | 0 mm | - | 78 W/m² | - |
| 1778065442 | 12.78° C | 96% | 1008.1 hPa | 0 mm | - | 73 W/m² | - |
| 1778064835 | 12.22° C | 96% | 1008.3 hPa | 0 mm | - | 38 W/m² | - |
| 1778064230 | 12.22° C | 96% | 1008.2 hPa | 0 mm | - | 36 W/m² | - |
| 1778063625 | 11.67° C | 95% | 1008.3 hPa | 0 mm | - | 8 W/m² | - |
| 1778063322 | 11.67° C | 96% | 1008.1 hPa | 0 mm | - | 14 W/m² | - |
| 1778063020 | 11.67° C | 96% | 1008 hPa | 0 mm | - | 13 W/m² | - |
| 1778062717 | 11.67° C | 96% | 1007.9 hPa | 0 mm | - | 14 W/m² | - |
| 1778062413 | 11.67° C | 95% | 1008.1 hPa | 0 mm | - | 16 W/m² | - |
| 1778062111 | 11.67° C | 95% | 1008 hPa | 0 mm | - | 15 W/m² | - |
| 1778061810 | 11.67° C | 95% | 1008 hPa | 0 mm | - | 16 W/m² | - |
| 1778061204 | 11.67° C | 95% | 1008.1 hPa | 0 mm | - | 3 W/m² | - |
| 1778060901 | 11.67° C | 95% | 1007.9 hPa | 0 mm | - | 2 W/m² | - |
| 1778059994 | 11.67° C | 94% | 1007.9 hPa | 0 mm | - | 0 W/m² | - |
| 1778059692 | 11.67° C | 94% | 1007.9 hPa | 0 mm | - | 0 W/m² | - |
* Rain latest hour (hover to see other rain measurements)
** Current wind speed in m/s (hover to see current wind gust speed)